Squamish Youth Triathlon 2016

Sunday, May 8, 2016 8:52 AM (GMT-8) - Final results

Race info
Sport: Triathlon
Location: Squamish, BC, Canada
Start type: Individual start
Racers: 67
Timing mode: Multi-device splits
Timed on: iPad
Timed with: Webscorer PRO 2.2
Updated: Sunday, May 8, 2016 4:22 PM (GMT-7)
Organized by: Squamish Youth Triathlon
Race website: www.squamishyouthtri.ca

Contact organizer

Use this form to send an email to the organizer.

Your name
Your email address
Confirm email address
Message to organizer
Send

Place Bib Racer name Affiliation Category Gender Finish time
1207Cael EleyWest Vancouver Male 8-9 yearsM 22:52.2--100%22.87%22.64%
2254Tannen DesbrisayPemberton Male 8-9 yearsM 23:40.1+0:47.9+3.49%96.63%20.17%19.94%
3220Hadley ToddSquamish Female 8-9 yearsF 23:52.7+1:00.5+4.41%95.78%19.47%19.23%
4243Cadence MurraySquamish Female 8-9 yearsF 24:32.8+1:40.6+7.33%93.17%17.21%16.97%
5611Ridgeway RockettesNorth Vancouver Relay 8-9 yearsF/M 24:49.8+1:57.6+8.57%92.11%16.26%16.01%
6239Kyle LowenbergerBrackendale Male 8-9 yearsM 25:13.3+2:21.1+10.28%90.68%14.94%14.69%
7613Team CometGaribaldi Highlands Relay 8-9 yearsF/M 25:21.1+2:28.9+10.85%90.21%14.50%14.25%
8227Jory Stephen KnoxGibsons Male 8-9 yearsM 25:21.6+2:29.4+10.89%90.18%14.47%14.22%
9226Hunter DawsonSquamish Male 8-9 yearsM 25:35.6+2:43.4+11.91%89.36%13.68%13.43%
10225Arya SchoahsSquamish Female 8-9 yearsF 25:53.5+3:01.3+13.21%88.33%12.68%12.42%
11228Noah KrummeSquamish Male 8-9 yearsM 25:57.9+3:05.7+13.53%88.08%12.43%12.17%
12202Kyle ChapieskiDelta Male 8-9 yearsM 26:14.2+3:22.0+14.72%87.17%11.51%11.25%
13240Elijah OtisSquamish Male 8-9 yearsM 26:14.8+3:22.6+14.76%87.13%11.48%11.22%
14200Ryan SweenyGaribaldi Highlands Male 8-9 yearsM 26:24.3+3:32.1+15.46%86.61%10.94%10.68%
15208Spencer WardleVancouver Male 8-9 yearsM 26:48.8+3:56.6+17.24%85.29%9.57%9.30%
16251Tessa ClarkeGaribaldi Highlands Female 8-9 yearsF 26:54.4+4:02.2+17.65%85.00%9.25%8.99%
17261Nolan LangGaribaldi Highlands Male 8-9 yearsM 26:55.7+4:03.5+17.75%84.93%9.18%8.91%
18206Brodie BainSquamish Male 8-9 yearsM 27:10.1+4:17.9+18.79%84.18%8.37%8.10%
19244Andrew MorrisSquamish Male 8-9 yearsM 27:18.3+4:26.1+19.39%83.76%7.91%7.64%
20614M&M&MGaribaldi Highlands Relay 8-9 yearsF/M 27:18.9+4:26.7+19.44%83.73%7.88%7.61%
21255Eamon MonaghanGaribaldi Highlands Male 8-9 yearsM 27:27.3+4:35.1+20.05%83.30%7.40%7.13%
22257Spencer ToddSquamish Male 8-9 yearsM 27:33.6+4:41.4+20.51%82.98%7.05%6.78%
23248Jack ClarkBrackendale Male 8-9 yearsM 27:48.3+4:56.1+21.58%82.25%6.22%5.95%
24213Madilynn FechoSquamish Female 8-9 yearsF 27:57.6+5:05.4+22.26%81.80%5.70%5.42%
25223Cole DickauSquamish Male 8-9 yearsM 28:03.2+5:11.0+22.66%81.52%5.38%5.11%
26245Gabrielle ArmstrongKamloops Female 8-9 yearsF 28:07.1+5:14.9+22.95%81.33%5.17%4.89%
27238William LevisSquamish Male 8-9 yearsM 28:28.6+5:36.4+24.52%80.31%3.96%3.68%
28210Bayden SmithNorth Vancouver Male 8-9 yearsM 28:32.5+5:40.3+24.80%80.13%3.74%3.46%
29221Sam BoaBrackendale Male 8-9 yearsM 28:50.1+5:57.9+26.08%79.31%2.75%2.46%
30612Speed-O-RamaSquamish Relay 8-9 yearsF/M 28:56.5+6:04.3+26.55%79.02%2.39%2.10%
31212Graydon ManshipGaribaldi Highlands Male 8-9 yearsM 28:57.3+6:05.1+26.61%78.98%2.34%2.06%
32236Rian WaiteGaribaldi Highlnds Female 8-9 yearsF 29:16.7+6:24.5+28.02%78.11%1.25%0.96%
33252Brexton DonnerGaribaldi Highlands Male 8-9 yearsM 29:33.8+6:41.6+29.27%77.36%0.29%0.00%
34222Kiera PrinceNorth Vancouver Female 8-9 yearsF 29:34.4+6:42.2+29.31%77.33%0.26%-0.03%
35246Luke BayardAldergrove Male 8-9 yearsM 29:35.7+6:43.5+29.41%77.28%0.19%-0.11%
36249Avery KrummeSquamish Female 8-9 yearsF 29:38.9+6:46.7+29.64%77.14%0.01%-0.29%
37232Findlay HendersonSquamish Male 8-9 yearsM 29:43.2+6:51.0+29.95%76.95%-0.24%-0.53%
38219Chloe WatsonGaribaldi Hihglands Female 8-9 yearsF 29:46.8+6:54.6+30.21%76.80%-0.44%-0.73%
39204Brydon Harris-IrvineNorth Vancouver Female 8-9 yearsF 29:49.8+6:57.6+30.43%76.67%-0.61%-0.90%
40258Hunter HeistermanGaribaldi Highlands Male 8-9 yearsM 29:57.4+7:05.2+30.99%76.34%-1.03%-1.33%
41242Flynn GentilGaribaldi Highlands Male 8-9 yearsM 30:02.4+7:10.2+31.35%76.13%-1.32%-1.61%
42253Kai WilsonSquamish Male 8-9 yearsM 30:17.3+7:25.1+32.44%75.51%-2.15%-2.45%
43229Alexia MorgansNorth Vancouver Female 8-9 yearsF 30:46.9+7:54.7+34.59%74.30%-3.82%-4.12%
44201Melissa PascuzziSquamish Female 8-9 yearsF 30:59.0+8:06.8+35.48%73.81%-4.50%-4.80%
45224Aiden NeillWest Vancouver Male 8-9 yearsM 31:01.2+8:09.0+35.64%73.73%-4.62%-4.93%
46215Danni RohlSquamish Female 8-9 yearsF 31:20.4+8:28.2+37.04%72.97%-5.70%-6.01%
47230Jed FlemingGaribaldi Highlands Male 8-9 yearsM 31:27.2+8:35.0+37.53%72.71%-6.08%-6.39%
48247Jennifer WilliamsGaribaldi Highlands Female 8-9 yearsF 31:36.7+8:44.5+38.22%72.35%-6.62%-6.93%
49235Mieko PatemanSquamish Female 8-9 yearsF 31:53.5+9:01.3+39.45%71.71%-7.56%-7.88%
50214Zadie WatersGaribaldi Highlands Female 8-9 yearsF 32:02.1+9:09.9+40.07%71.39%-8.04%-8.36%
51262Avery LangGaribaldi Highlands Female 8-9 yearsF 32:08.7+9:16.5+40.56%71.15%-8.41%-8.73%
52217James HowarthGaribaldi Highlands Male 8-9 yearsM 32:19.1+9:26.9+41.31%70.76%-9.00%-9.32%
53211Bretton WinstanleySquamish Female 8-9 yearsF 32:34.5+9:42.3+42.44%70.21%-9.87%-10.19%
54259Riley FentonGaribaldi Highlands Male 8-9 yearsM 33:26.1+10:33.9+46.20%68.40%-12.77%-13.10%
55209Sydney CrambSquamish Female 8-9 yearsF 33:39.7+10:47.5+47.19%67.94%-13.53%-13.86%
56216Taylor RohlSquamish Female 8-9 yearsF 33:47.1+10:54.9+47.73%67.69%-13.95%-14.28%
57237Angus DarmopilSquamish Male 8-9 yearsM 33:52.3+11:00.1+48.11%67.52%-14.24%-14.57%
58218Ben MacgillivraySquamish Female 8-9 yearsF 34:17.2+11:25.0+49.92%66.70%-15.64%-15.98%
59256Riley DreverSquamish Male 8-9 yearsM 34:19.4+11:27.2+50.08%66.63%-15.76%-16.10%
60234Alexandraa McleodGaribaldi Highlands Female 8-9 yearsF 35:48.2+12:56.0+56.55%63.88%-20.75%-21.11%
61250Sienna ChurchSurrey Female 8-9 yearsF 36:47.1+13:54.9+60.84%62.17%-24.06%-24.43%
62231Sierra FoxSquamish Female 8-9 yearsF 37:10.0+14:17.8+62.51%61.53%-25.35%-25.72%
63233Madeleine LawtonGaribaldi Nighlands Female 8-9 yearsF 37:22.0+14:29.8+63.39%61.20%-26.03%-26.40%
64241Evie ChamberlainSquamish Female 8-9 yearsF 37:54.8+15:02.6+65.78%60.32%-27.87%-28.24%
65260Annika GouldSquamish Female 8-9 yearsF 38:13.1+15:20.9+67.11%59.84%-28.90%-29.28%
-203Julia PotyokNorth Vancouver Female 8-9 yearsF DNF-----
-205Thomas LeggWhistler Male 8-9 yearsM DNF-----